Time;durP1;ratioP1;P1;durP2;ratioP2;P2;SDS_P1;SDS_P2;PMS_P1;PMS_P2;Temp;Humidity;BMP_temperature;BMP_pressure;BME280_temperature;BME280_humidity;BME280_pressure;Samples;Min_cycle;Max_cycle;Signal;HPM_P1;HPM_P2
2024/01/14 00:01:48;;;;;;;13.73;1.33;;;;;;;;;;5065463;28;20040;-45
2024/01/14 00:04:15;;;;;;;10.02;1.30;;;;;;;;;;5070171;28;20024;-45
2024/01/14 00:06:42;;;;;;;9.75;1.25;;;;;;;;;;5056496;28;20033;-45
2024/01/14 00:09:09;;;;;;;8.40;0.95;;;;;;;;;;5064111;28;20028;-45
2024/01/14 00:11:36;;;;;;;9.20;1.23;;;;;;;;;;5052087;28;20099;-46
2024/01/14 00:14:03;;;;;;;7.97;1.40;;;;;;;;;;5066571;28;20110;-46
2024/01/14 00:16:34;;;;;;;8.82;1.63;;;;;;;;;;5067624;28;20087;-43
2024/01/14 00:19:09;;;;;;;15.18;1.35;;;;;;;;;;5064732;28;20047;-47
2024/01/14 00:21:36;;;;;;;11.52;1.40;;;;;;;;;;5057429;28;20032;-42
2024/01/14 00:24:03;;;;;;;4.03;1.10;;;;;;;;;;5070949;28;20041;-44
2024/01/14 00:26:31;;;;;;;8.23;1.30;;;;;;;;;;5070758;28;20098;-44
2024/01/14 00:28:59;;;;;;;9.95;1.38;;;;;;;;;;5070882;28;20035;-43
2024/01/14 00:31:26;;;;;;;8.50;1.17;;;;;;;;;;5069588;28;20024;-44
2024/01/14 00:33:53;;;;;;;11.95;1.38;;;;;;;;;;5067860;28;20028;-44
2024/01/14 00:36:20;;;;;;;7.63;1.20;;;;;;;;;;5051233;28;20017;-44
2024/01/14 00:38:47;;;;;;;10.50;1.30;;;;;;;;;;5063325;28;20086;-44
2024/01/14 00:41:15;;;;;;;9.05;1.33;;;;;;;;;;5070768;28;20115;-47
2024/01/14 00:43:42;;;;;;;9.45;1.10;;;;;;;;;;5070647;28;20041;-45
2024/01/14 00:46:09;;;;;;;8.43;1.30;;;;;;;;;;5070737;28;20364;-44
2024/01/14 00:48:36;;;;;;;14.25;2.00;;;;;;;;;;5053931;28;20090;-48
2024/01/14 00:51:03;;;;;;;17.38;2.15;;;;;;;;;;5069950;28;20082;-45
2024/01/14 00:53:30;;;;;;;6.72;1.48;;;;;;;;;;5070099;28;20132;-45
2024/01/14 00:55:57;;;;;;;13.30;1.52;;;;;;;;;;5069178;28;20451;-39
2024/01/14 00:58:24;;;;;;;11.90;1.63;;;;;;;;;;5070385;28;20033;-45
2024/01/14 01:00:51;;;;;;;17.70;1.23;;;;;;;;;;5069575;28;20074;-47
2024/01/14 01:03:18;;;;;;;7.93;1.08;;;;;;;;;;5070277;28;20025;-38
2024/01/14 01:05:45;;;;;;;7.85;1.17;;;;;;;;;;5059738;28;20037;-37
2024/01/14 01:08:12;;;;;;;9.23;1.38;;;;;;;;;;5072872;28;20082;-37
2024/01/14 01:10:39;;;;;;;11.77;1.48;;;;;;;;;;5073739;28;20082;-44
2024/01/14 01:13:06;;;;;;;7.50;1.00;;;;;;;;;;5073966;28;20032;-49
2024/01/14 01:15:33;;;;;;;11.35;1.25;;;;;;;;;;5073255;28;20565;-46
2024/01/14 01:18:01;;;;;;;13.23;1.40;;;;;;;;;;5071482;28;20108;-49
2024/01/14 01:20:28;;;;;;;10.85;1.13;;;;;;;;;;5073867;28;20051;-46
2024/01/14 01:22:55;;;;;;;5.93;1.00;;;;;;;;;;5072854;28;20031;-45
2024/01/14 01:25:22;;;;;;;7.75;1.23;;;;;;;;;;5073480;28;20093;-43
2024/01/14 01:27:49;;;;;;;7.28;1.23;;;;;;;;;;5071278;28;20063;-43
2024/01/14 01:30:16;;;;;;;7.47;1.23;;;;;;;;;;5073741;28;20024;-49
2024/01/14 01:32:43;;;;;;;12.88;1.63;;;;;;;;;;5072704;28;20032;-45
2024/01/14 01:35:10;;;;;;;7.55;1.20;;;;;;;;;;5063561;28;20045;-48
2024/01/14 01:37:37;;;;;;;11.23;1.20;;;;;;;;;;5071922;28;20021;-44
2024/01/14 01:40:04;;;;;;;9.70;1.10;;;;;;;;;;5072703;28;20025;-46
2024/01/14 01:42:34;;;;;;;7.32;1.33;;;;;;;;;;5073596;28;20031;-44
2024/01/14 01:45:01;;;;;;;3.88;1.05;;;;;;;;;;5073251;28;20402;-46
2024/01/14 01:47:28;;;;;;;10.00;1.70;;;;;;;;;;5067785;28;20039;-46
2024/01/14 01:49:56;;;;;;;7.95;1.27;;;;;;;;;;5079328;28;20513;-47
2024/01/14 01:52:23;;;;;;;3.05;1.17;;;;;;;;;;5071843;28;20779;-48
2024/01/14 01:54:51;;;;;;;9.55;1.30;;;;;;;;;;5073688;28;20114;-45
2024/01/14 01:57:19;;;;;;;7.32;1.27;;;;;;;;;;5073460;28;20589;-43
2024/01/14 01:59:47;;;;;;;9.95;1.33;;;;;;;;;;5073589;28;20032;-44
2024/01/14 02:02:14;;;;;;;11.77;1.27;;;;;;;;;;5067183;28;20021;-43
2024/01/14 02:04:41;;;;;;;14.45;1.77;;;;;;;;;;5052025;28;20466;-43
2024/01/14 02:07:08;;;;;;;8.23;1.40;;;;;;;;;;5051810;28;20453;-42
2024/01/14 02:09:35;;;;;;;12.90;1.95;;;;;;;;;;5053379;28;20120;-43
2024/01/14 02:12:02;;;;;;;11.23;2.17;;;;;;;;;;5053225;28;20025;-45
2024/01/14 02:14:29;;;;;;;7.05;1.98;;;;;;;;;;5053261;28;20032;-41
2024/01/14 02:16:55;;;;;;;7.65;2.47;;;;;;;;;;5052462;28;20028;-43
2024/01/14 02:19:22;;;;;;;8.40;2.40;;;;;;;;;;5053276;28;20068;-44
2024/01/14 02:24:45;;;;;;;4.82;1.85;;;;;;;;;;5052903;28;20040;-42
2024/01/14 02:27:12;;;;;;;9.30;2.05;;;;;;;;;;5052775;28;20055;-43
2024/01/14 02:29:39;;;;;;;10.30;2.30;;;;;;;;;;5052998;28;20490;-42
2024/01/14 02:32:06;;;;;;;7.78;1.73;;;;;;;;;;5052852;28;20078;-42
2024/01/14 02:34:35;;;;;;;8.43;1.70;;;;;;;;;;5052846;28;20506;-42
2024/01/14 02:37:03;;;;;;;11.82;1.67;;;;;;;;;;5052632;28;20475;-41
2024/01/14 02:39:30;;;;;;;5.15;1.65;;;;;;;;;;5052829;28;20025;-42
2024/01/14 02:41:57;;;;;;;12.85;1.80;;;;;;;;;;5052722;28;20025;-42
2024/01/14 02:44:24;;;;;;;8.27;1.83;;;;;;;;;;5052643;28;20021;-42
2024/01/14 02:46:51;;;;;;;7.63;1.70;;;;;;;;;;5052712;28;20032;-42
2024/01/14 02:49:18;;;;;;;12.93;2.10;;;;;;;;;;5052562;28;20029;-40
2024/01/14 02:51:48;;;;;;;16.23;2.35;;;;;;;;;;5052167;28;20032;-41
2024/01/14 02:54:15;;;;;;;19.65;2.72;;;;;;;;;;5052311;28;20025;-39
2024/01/14 02:56:41;;;;;;;18.30;2.25;;;;;;;;;;5052480;28;20139;-38
2024/01/14 02:59:08;;;;;;;14.70;2.25;;;;;;;;;;5059851;28;20032;-39
2024/01/14 03:01:44;;;;;;;13.60;1.90;;;;;;;;;;5071516;28;20028;-39
2024/01/14 03:04:11;;;;;;;7.55;1.65;;;;;;;;;;5071762;28;20387;-39
2024/01/14 03:06:38;;;;;;;8.13;1.65;;;;;;;;;;5070874;28;20052;-40
2024/01/14 03:09:06;;;;;;;4.25;1.25;;;;;;;;;;5071465;28;20040;-38
2024/01/14 03:11:39;;;;;;;7.18;1.10;;;;;;;;;;5071468;28;20490;-38
2024/01/14 03:14:06;;;;;;;6.90;1.17;;;;;;;;;;5068803;28;20033;-39
2024/01/14 03:16:33;;;;;;;4.82;1.10;;;;;;;;;;5071438;28;20040;-38
2024/01/14 03:19:00;;;;;;;12.10;1.60;;;;;;;;;;5071492;28;20066;-38
2024/01/14 03:21:27;;;;;;;11.95;1.73;;;;;;;;;;5070236;28;20032;-40
2024/01/14 03:23:54;;;;;;;10.68;1.40;;;;;;;;;;5062373;28;20025;-39
2024/01/14 03:26:21;;;;;;;7.15;1.30;;;;;;;;;;5061626;28;20170;-39
2024/01/14 03:28:48;;;;;;;7.15;1.20;;;;;;;;;;5061542;28;20061;-38
2024/01/14 03:31:18;;;;;;;10.25;1.10;;;;;;;;;;5061468;28;20037;-39
2024/01/14 03:33:45;;;;;;;3.10;0.90;;;;;;;;;;5059983;28;20056;-41
2024/01/14 03:36:15;;;;;;;1.08;0.60;;;;;;;;;;5068759;28;20028;-39
2024/01/14 03:38:43;;;;;;;1.88;0.70;;;;;;;;;;5070677;28;20032;-38
2024/01/14 03:41:12;;;;;;;4.95;0.60;;;;;;;;;;5070635;28;20398;-39
2024/01/14 03:43:39;;;;;;;3.53;0.70;;;;;;;;;;5070923;28;20550;-39
2024/01/14 03:46:06;;;;;;;9.73;1.30;;;;;;;;;;5069885;28;20075;-39
2024/01/14 03:48:33;;;;;;;2.60;0.90;;;;;;;;;;5070831;28;20068;-40
2024/01/14 03:51:00;;;;;;;2.17;0.90;;;;;;;;;;5070606;28;20490;-39
2024/01/14 03:53:27;;;;;;;6.55;1.35;;;;;;;;;;5070525;28;20024;-39
2024/01/14 03:55:54;;;;;;;19.70;1.80;;;;;;;;;;5070935;28;20024;-39
2024/01/14 03:58:21;;;;;;;15.60;1.30;;;;;;;;;;5069464;28;20082;-39
2024/01/14 04:00:48;;;;;;;13.68;1.58;;;;;;;;;;5068597;28;20028;-39
2024/01/14 04:03:15;;;;;;;2.20;0.70;;;;;;;;;;5066678;28;20035;-39
2024/01/14 04:05:42;;;;;;;6.47;0.90;;;;;;;;;;5061702;28;20505;-39
2024/01/14 04:08:10;;;;;;;2.33;1.10;;;;;;;;;;5063070;28;20452;-38
2024/01/14 04:10:36;;;;;;;6.03;0.90;;;;;;;;;;5054919;28;20024;-39
2024/01/14 04:13:04;;;;;;;5.93;0.70;;;;;;;;;;5070896;28;20059;-38
2024/01/14 04:15:30;;;;;;;4.55;0.80;;;;;;;;;;5069315;28;20028;-39
2024/01/14 04:17:57;;;;;;;2.85;1.00;;;;;;;;;;5070397;28;20024;-39
2024/01/14 04:20:25;;;;;;;2.63;0.60;;;;;;;;;;5070399;28;20393;-39
2024/01/14 04:22:52;;;;;;;2.53;0.90;;;;;;;;;;5070363;28;20041;-39
2024/01/14 04:25:19;;;;;;;2.35;0.90;;;;;;;;;;5070371;28;20078;-39
2024/01/14 04:27:46;;;;;;;2.13;1.00;;;;;;;;;;5070058;28;20056;-39
2024/01/14 04:30:13;;;;;;;5.60;0.73;;;;;;;;;;5070014;28;20036;-40
2024/01/14 04:32:40;;;;;;;3.15;0.70;;;;;;;;;;5070450;28;20074;-42
2024/01/14 04:35:07;;;;;;;1.95;0.60;;;;;;;;;;5070515;28;20021;-40
2024/01/14 04:37:34;;;;;;;4.05;0.77;;;;;;;;;;5070525;28;20055;-41
2024/01/14 04:40:01;;;;;;;1.88;0.75;;;;;;;;;;5068673;28;20032;-40
2024/01/14 04:42:28;;;;;;;2.38;0.80;;;;;;;;;;5074299;28;20074;-40
2024/01/14 04:44:55;;;;;;;4.15;0.90;;;;;;;;;;5073497;28;20789;-40
2024/01/14 04:47:22;;;;;;;2.03;1.00;;;;;;;;;;5074010;28;20119;-40
2024/01/14 04:49:49;;;;;;;7.03;1.23;;;;;;;;;;5073918;28;20104;-40
2024/01/14 04:52:16;;;;;;;3.60;1.10;;;;;;;;;;5073901;28;20028;-41
2024/01/14 04:54:43;;;;;;;8.40;1.35;;;;;;;;;;5073865;28;20040;-40
2024/01/14 04:57:10;;;;;;;12.30;1.02;;;;;;;;;;5073862;28;20382;-40
2024/01/14 04:59:37;;;;;;;9.00;0.88;;;;;;;;;;5073560;28;20103;-40
2024/01/14 05:02:04;;;;;;;4.95;0.80;;;;;;;;;;5073622;28;20025;-40
2024/01/14 05:04:31;;;;;;;5.50;0.70;;;;;;;;;;5073772;28;20031;-40
2024/01/14 05:06:59;;;;;;;6.93;0.90;;;;;;;;;;5073788;28;20039;-40
2024/01/14 05:09:26;;;;;;;24.98;2.33;;;;;;;;;;5073751;28;20027;-39
2024/01/14 05:11:53;;;;;;;19.63;1.55;;;;;;;;;;5073419;28;20039;-39
2024/01/14 05:14:20;;;;;;;18.17;1.45;;;;;;;;;;5073545;28;20024;-40
2024/01/14 05:16:47;;;;;;;5.63;0.75;;;;;;;;;;5073574;28;20028;-40
2024/01/14 05:19:14;;;;;;;13.20;1.48;;;;;;;;;;5073583;28;20028;-39
2024/01/14 05:21:41;;;;;;;15.63;1.30;;;;;;;;;;5064267;28;20095;-39
2024/01/14 05:24:08;;;;;;;3.97;0.93;;;;;;;;;;5063294;28;20021;-40
2024/01/14 05:26:40;;;;;;;14.40;1.23;;;;;;;;;;5062196;28;20040;-41
2024/01/14 05:29:07;;;;;;;14.98;1.27;;;;;;;;;;5071108;28;20123;-40
2024/01/14 05:31:37;;;;;;;13.45;1.35;;;;;;;;;;5058414;28;20115;-39
2024/01/14 05:34:04;;;;;;;11.43;0.98;;;;;;;;;;5073679;28;20078;-40
2024/01/14 05:36:31;;;;;;;34.20;1.80;;;;;;;;;;5073634;28;20024;-40
2024/01/14 05:38:58;;;;;;;18.60;1.42;;;;;;;;;;5074001;28;20031;-40
2024/01/14 05:41:25;;;;;;;18.58;1.40;;;;;;;;;;5073781;28;20044;-39
2024/01/14 05:43:52;;;;;;;11.88;1.23;;;;;;;;;;5073720;28;20024;-39
2024/01/14 05:46:19;;;;;;;8.32;0.90;;;;;;;;;;5073481;28;20048;-39
2024/01/14 05:48:46;;;;;;;12.35;1.27;;;;;;;;;;5073636;28;20099;-40
2024/01/14 05:51:13;;;;;;;12.20;0.90;;;;;;;;;;5072601;28;20135;-39
2024/01/14 05:53:40;;;;;;;10.93;1.17;;;;;;;;;;5073500;28;20099;-39
2024/01/14 05:56:07;;;;;;;12.68;0.93;;;;;;;;;;5073157;28;20028;-39
2024/01/14 05:58:34;;;;;;;24.90;1.30;;;;;;;;;;5073493;28;20016;-39
2024/01/14 06:01:01;;;;;;;12.88;1.00;;;;;;;;;;5073309;28;20651;-39
2024/01/14 06:03:28;;;;;;;11.80;1.02;;;;;;;;;;5088835;28;20219;-39
2024/01/14 06:05:55;;;;;;;11.82;1.00;;;;;;;;;;5093027;28;20077;-40
2024/01/14 06:08:22;;;;;;;7.88;0.75;;;;;;;;;;5093418;28;20035;-39
2024/01/14 06:10:49;;;;;;;18.98;1.17;;;;;;;;;;5093538;28;20020;-39
2024/01/14 06:13:16;;;;;;;18.42;1.67;;;;;;;;;;5093591;28;20030;-39
2024/01/14 06:15:43;;;;;;;7.93;1.00;;;;;;;;;;5093413;28;20103;-39
2024/01/14 06:18:10;;;;;;;11.35;1.15;;;;;;;;;;5093321;28;20032;-39
2024/01/14 06:20:36;;;;;;;15.45;0.98;;;;;;;;;;5093288;28;20016;-39
2024/01/14 06:23:04;;;;;;;8.00;0.60;;;;;;;;;;5093023;28;20382;-39
2024/01/14 06:25:31;;;;;;;4.53;0.73;;;;;;;;;;5093056;28;20459;-39
2024/01/14 06:27:58;;;;;;;7.25;0.60;;;;;;;;;;5092847;28;20111;-39
2024/01/14 06:30:25;;;;;;;8.50;0.98;;;;;;;;;;5093031;28;20036;-39
2024/01/14 06:32:55;;;;;;;23.40;1.67;;;;;;;;;;5092971;28;20032;-39
2024/01/14 06:35:22;;;;;;;12.05;1.52;;;;;;;;;;5093051;28;20375;-39
2024/01/14 06:37:50;;;;;;;7.07;1.10;;;;;;;;;;5092984;28;20035;-39
2024/01/14 06:40:17;;;;;;;10.10;0.85;;;;;;;;;;5092701;28;20031;-40
2024/01/14 06:42:44;;;;;;;9.00;1.00;;;;;;;;;;5092829;28;20116;-39
2024/01/14 06:45:13;;;;;;;7.05;0.90;;;;;;;;;;5092926;28;20105;-39
2024/01/14 06:47:39;;;;;;;13.43;0.88;;;;;;;;;;5093017;28;20028;-39
2024/01/14 06:50:07;;;;;;;13.10;1.10;;;;;;;;;;5092662;28;20060;-39
2024/01/14 06:52:34;;;;;;;14.25;0.90;;;;;;;;;;5092686;28;20099;-39
2024/01/14 06:55:01;;;;;;;13.35;1.10;;;;;;;;;;5092751;28;20418;-39
2024/01/14 06:57:28;;;;;;;9.43;0.80;;;;;;;;;;5092488;28;20039;-39
2024/01/14 06:59:55;;;;;;;8.32;1.00;;;;;;;;;;5092485;28;20414;-38
2024/01/14 07:02:21;;;;;;;7.93;0.80;;;;;;;;;;5092224;28;20055;-39
2024/01/14 07:04:48;;;;;;;9.85;0.60;;;;;;;;;;5092456;28;20020;-39
2024/01/14 07:07:16;;;;;;;13.23;0.82;;;;;;;;;;5092259;28;20028;-39
2024/01/14 07:09:43;;;;;;;6.70;0.85;;;;;;;;;;5092215;28;20074;-39
2024/01/14 07:12:10;;;;;;;5.18;0.70;;;;;;;;;;5092317;28;20103;-39
2024/01/14 07:14:37;;;;;;;6.30;0.88;;;;;;;;;;5092389;28;20042;-39
2024/01/14 07:17:04;;;;;;;6.28;0.80;;;;;;;;;;5092317;28;20498;-39
2024/01/14 07:19:31;;;;;;;20.30;1.70;;;;;;;;;;5092108;28;20482;-39
2024/01/14 07:21:58;;;;;;;7.50;0.95;;;;;;;;;;5092188;28;20055;-39
2024/01/14 07:24:25;;;;;;;5.57;0.80;;;;;;;;;;5092065;28;20075;-39
2024/01/14 07:26:52;;;;;;;19.73;1.77;;;;;;;;;;5091930;28;20276;-39
2024/01/14 07:29:22;;;;;;;7.88;1.00;;;;;;;;;;5092026;28;20070;-39
2024/01/14 07:31:49;;;;;;;7.82;0.90;;;;;;;;;;5092065;28;20052;-39
2024/01/14 07:34:16;;;;;;;6.85;0.70;;;;;;;;;;5091884;28;20027;-38
2024/01/14 07:36:43;;;;;;;11.38;0.80;;;;;;;;;;5092006;28;20081;-39
2024/01/14 07:39:10;;;;;;;5.75;0.75;;;;;;;;;;5091955;28;20023;-39
2024/01/14 07:41:38;;;;;;;14.50;1.00;;;;;;;;;;5091705;28;20027;-39
2024/01/14 07:44:05;;;;;;;16.80;1.17;;;;;;;;;;5091738;28;20478;-39
2024/01/14 07:46:32;;;;;;;16.75;1.10;;;;;;;;;;5091801;28;20036;-39
2024/01/14 07:48:59;;;;;;;16.90;1.05;;;;;;;;;;5091837;28;20032;-39
2024/01/14 07:51:26;;;;;;;17.30;1.35;;;;;;;;;;5091719;28;20024;-39
2024/01/14 07:53:53;;;;;;;15.80;1.35;;;;;;;;;;5091870;28;20027;-39
2024/01/14 07:56:21;;;;;;;13.65;1.17;;;;;;;;;;5091710;28;20107;-39
2024/01/14 07:58:48;;;;;;;16.00;1.50;;;;;;;;;;5091695;28;20027;-39
2024/01/14 08:01:15;;;;;;;13.50;1.05;;;;;;;;;;5091556;28;20024;-39
2024/01/14 08:03:42;;;;;;;23.50;1.13;;;;;;;;;;5091747;28;20096;-39
2024/01/14 08:06:10;;;;;;;12.60;1.10;;;;;;;;;;5091739;28;20485;-39
2024/01/14 08:08:36;;;;;;;12.70;1.20;;;;;;;;;;5091574;28;20032;-39
2024/01/14 08:11:03;;;;;;;18.65;1.13;;;;;;;;;;5091484;28;20138;-39
2024/01/14 08:13:30;;;;;;;14.40;1.60;;;;;;;;;;5091675;28;20063;-39
2024/01/14 08:15:57;;;;;;;23.10;1.23;;;;;;;;;;5094395;28;20069;-39
2024/01/14 08:18:24;;;;;;;10.23;1.25;;;;;;;;;;5095622;28;20158;-39
2024/01/14 08:20:55;;;;;;;11.55;1.10;;;;;;;;;;5095670;28;20022;-39
2024/01/14 08:23:26;;;;;;;9.65;1.00;;;;;;;;;;5095407;28;20020;-40
2024/01/14 08:25:53;;;;;;;17.48;1.05;;;;;;;;;;5095471;28;20029;-39
2024/01/14 08:28:20;;;;;;;9.00;1.10;;;;;;;;;;5095273;28;20044;-38
2024/01/14 08:30:48;;;;;;;12.90;0.88;;;;;;;;;;5095373;28;20031;-38
2024/01/14 08:33:15;;;;;;;12.02;0.82;;;;;;;;;;5095389;28;20086;-38
2024/01/14 08:35:42;;;;;;;9.43;0.82;;;;;;;;;;5095228;28;20039;-38
2024/01/14 08:38:09;;;;;;;12.68;1.00;;;;;;;;;;5095365;28;20043;-39
2024/01/14 08:40:36;;;;;;;13.25;1.00;;;;;;;;;;5079808;28;20033;-38
2024/01/14 08:43:03;;;;;;;12.45;1.20;;;;;;;;;;5074975;28;20483;-39
2024/01/14 08:45:30;;;;;;;13.85;1.20;;;;;;;;;;5074856;28;20499;-39
2024/01/14 08:47:57;;;;;;;17.38;1.23;;;;;;;;;;5074737;28;20055;-38
2024/01/14 08:50:24;;;;;;;11.23;1.27;;;;;;;;;;5074784;28;20078;-39
2024/01/14 08:52:51;;;;;;;41.67;3.17;;;;;;;;;;5074788;28;20031;-39
2024/01/14 08:55:18;;;;;;;20.17;1.75;;;;;;;;;;5074907;28;20447;-39
2024/01/14 08:57:44;;;;;;;46.25;3.83;;;;;;;;;;5074677;28;20024;-39
2024/01/14 09:00:12;;;;;;;29.48;1.98;;;;;;;;;;5074494;28;20074;-38
2024/01/14 09:02:39;;;;;;;18.88;1.33;;;;;;;;;;5074542;28;20020;-38
2024/01/14 09:05:06;;;;;;;14.32;1.38;;;;;;;;;;5073175;28;20447;-39
2024/01/14 09:07:36;;;;;;;14.48;1.27;;;;;;;;;;5074301;28;20040;-39
2024/01/14 09:10:03;;;;;;;27.05;1.67;;;;;;;;;;5074283;28;20024;-38
2024/01/14 09:12:30;;;;;;;16.92;1.70;;;;;;;;;;5074404;28;20025;-38
2024/01/14 09:14:57;;;;;;;14.18;1.20;;;;;;;;;;5074354;28;20021;-38
2024/01/14 09:17:24;;;;;;;9.82;0.80;;;;;;;;;;5074385;28;20028;-38
2024/01/14 09:19:51;;;;;;;13.75;1.15;;;;;;;;;;5074186;28;20387;-38
2024/01/14 09:22:18;;;;;;;10.88;1.25;;;;;;;;;;5074278;28;20028;-39
2024/01/14 09:24:45;;;;;;;10.02;1.00;;;;;;;;;;5074217;28;20020;-38
2024/01/14 09:27:17;;;;;;;11.15;1.23;;;;;;;;;;5073650;28;20559;-38
2024/01/14 09:29:44;;;;;;;13.77;1.10;;;;;;;;;;5073870;28;20028;-38
2024/01/14 09:32:11;;;;;;;11.02;0.98;;;;;;;;;;5074265;28;20368;-38
2024/01/14 09:34:39;;;;;;;4.60;0.60;;;;;;;;;;5073527;28;20075;-38
2024/01/14 09:37:06;;;;;;;13.07;1.05;;;;;;;;;;5073901;28;20029;-38
2024/01/14 09:39:33;;;;;;;9.80;0.88;;;;;;;;;;5073665;28;20032;-38
2024/01/14 09:42:18;;;;;;;10.65;0.95;;;;;;;;;;5073798;28;20092;-39
2024/01/14 09:44:46;;;;;;;19.05;1.23;;;;;;;;;;5073833;28;20024;-39
2024/01/14 09:47:15;;;;;;;13.07;1.20;;;;;;;;;;5073935;28;20115;-38
2024/01/14 09:49:43;;;;;;;10.32;0.95;;;;;;;;;;5073622;28;20025;-38
2024/01/14 09:52:11;;;;;;;10.88;0.80;;;;;;;;;;5073669;28;20028;-39
2024/01/14 09:54:39;;;;;;;7.03;0.77;;;;;;;;;;5073714;28;20052;-39
2024/01/14 09:57:06;;;;;;;6.18;1.35;;;;;;;;;;5073715;28;20389;-39
2024/01/14 09:59:37;;;;;;;4.40;0.50;;;;;;;;;;5073429;28;20031;-39
2024/01/14 10:02:05;;;;;;;10.32;0.88;;;;;;;;;;5073539;28;20032;-38
2024/01/14 10:04:32;;;;;;;16.95;1.50;;;;;;;;;;5073617;28;20111;-38
2024/01/14 10:07:00;;;;;;;6.82;1.00;;;;;;;;;;5073390;28;20442;-38
2024/01/14 10:09:27;;;;;;;6.10;0.50;;;;;;;;;;5073320;28;20028;-38
2024/01/14 10:11:54;;;;;;;6.93;0.90;;;;;;;;;;5073269;28;20024;-38
2024/01/14 10:14:26;;;;;;;4.95;1.27;;;;;;;;;;5073278;28;20020;-38
2024/01/14 10:16:57;;;;;;;2.30;0.47;;;;;;;;;;5073087;28;20093;-39
2024/01/14 10:19:24;;;;;;;6.95;0.43;;;;;;;;;;5073164;28;20103;-39
2024/01/14 10:21:53;;;;;;;7.75;0.70;;;;;;;;;;5073221;28;20052;-38
2024/01/14 10:24:21;;;;;;;6.22;0.50;;;;;;;;;;5072986;28;20078;-39
2024/01/14 10:26:57;;;;;;;14.93;0.82;;;;;;;;;;5072677;28;20101;-39
2024/01/14 10:29:24;;;;;;;8.55;0.50;;;;;;;;;;5072971;28;20024;-39
2024/01/14 10:31:52;;;;;;;4.45;0.40;;;;;;;;;;5072990;28;20028;-38
2024/01/14 10:34:20;;;;;;;4.95;0.40;;;;;;;;;;5072853;28;20032;-39
2024/01/14 10:36:47;;;;;;;4.88;0.40;;;;;;;;;;5072728;28;20486;-38
2024/01/14 10:39:14;;;;;;;4.80;0.70;;;;;;;;;;5072013;28;20029;-39
2024/01/14 10:41:41;;;;;;;2.75;0.30;;;;;;;;;;5072668;28;20048;-38
2024/01/14 10:44:09;;;;;;;6.03;0.50;;;;;;;;;;5072528;28;20023;-39
2024/01/14 10:46:38;;;;;;;5.80;0.50;;;;;;;;;;5072431;28;20036;-39
2024/01/14 10:49:09;;;;;;;2.08;0.40;;;;;;;;;;5072432;28;20025;-38
2024/01/14 10:51:40;;;;;;;4.57;0.57;;;;;;;;;;5072555;28;20021;-39
2024/01/14 10:54:14;;;;;;;7.68;0.77;;;;;;;;;;5072329;28;20482;-39
2024/01/14 10:56:44;;;;;;;6.45;1.08;;;;;;;;;;5072319;28;20036;-38
2024/01/14 10:59:13;;;;;;;3.53;0.40;;;;;;;;;;5072244;28;20028;-38
2024/01/14 11:01:45;;;;;;;5.22;0.73;;;;;;;;;;5072036;28;20029;-39
2024/01/14 11:04:12;;;;;;;5.10;0.55;;;;;;;;;;5072347;28;20085;-38
2024/01/14 11:06:40;;;;;;;9.40;0.70;;;;;;;;;;5072126;28;20040;-39
2024/01/14 11:09:07;;;;;;;12.52;0.80;;;;;;;;;;5072057;28;20143;-38
2024/01/14 11:11:40;;;;;;;15.55;1.02;;;;;;;;;;5072037;28;20024;-38
2024/01/14 11:14:13;;;;;;;7.88;0.88;;;;;;;;;;5072050;28;20043;-38
2024/01/14 11:16:44;;;;;;;5.72;0.60;;;;;;;;;;5072024;28;20111;-39
2024/01/14 11:19:14;;;;;;;7.00;0.90;;;;;;;;;;5071912;28;20025;-39
2024/01/14 11:21:56;;;;;;;10.32;0.75;;;;;;;;;;5072092;28;20021;-39
2024/01/14 11:24:24;;;;;;;8.75;0.68;;;;;;;;;;5071836;28;20406;-38
2024/01/14 11:26:51;;;;;;;10.93;0.70;;;;;;;;;;5071664;28;20048;-39
2024/01/14 11:29:40;;;;;;;10.40;0.90;;;;;;;;;;5071733;28;20114;-38
2024/01/14 11:32:11;;;;;;;13.20;1.00;;;;;;;;;;5071856;28;20016;-38
2024/01/14 11:34:47;;;;;;;12.57;1.10;;;;;;;;;;5071792;28;20060;-39
2024/01/14 11:37:32;;;;;;;8.48;1.00;;;;;;;;;;5071847;28;20032;-39
2024/01/14 11:40:09;;;;;;;7.32;0.90;;;;;;;;;;5071736;28;20107;-39
2024/01/14 11:42:36;;;;;;;10.80;0.70;;;;;;;;;;5071704;28;20078;-39
2024/01/14 11:45:23;;;;;;;13.63;0.90;;;;;;;;;;5071663;28;20433;-39
2024/01/14 11:47:51;;;;;;;13.10;1.13;;;;;;;;;;5064603;28;20049;-39
2024/01/14 11:50:19;;;;;;;6.95;0.80;;;;;;;;;;5071680;28;20028;-39
2024/01/14 11:52:47;;;;;;;13.82;0.90;;;;;;;;;;5071696;28;20020;-40
2024/01/14 11:55:14;;;;;;;15.07;1.15;;;;;;;;;;5071536;28;20675;-39
2024/01/14 11:57:41;;;;;;;19.40;1.30;;;;;;;;;;5071424;28;20024;-39
2024/01/14 12:00:08;;;;;;;20.65;1.40;;;;;;;;;;5071406;28;20028;-39
2024/01/14 12:02:35;;;;;;;46.53;2.75;;;;;;;;;;5071402;28;20020;-39
2024/01/14 12:05:19;;;;;;;27.88;1.67;;;;;;;;;;5071488;28;20131;-39
2024/01/14 12:07:46;;;;;;;16.75;1.40;;;;;;;;;;5071422;28;20024;-39
2024/01/14 12:10:20;;;;;;;16.98;1.65;;;;;;;;;;5071343;28;20125;-39
2024/01/14 12:12:47;;;;;;;14.05;1.42;;;;;;;;;;5071236;28;20103;-38
2024/01/14 12:15:15;;;;;;;18.30;0.95;;;;;;;;;;5071364;28;20367;-39
2024/01/14 12:17:53;;;;;;;20.13;1.30;;;;;;;;;;5071374;28;20024;-39
2024/01/14 12:20:22;;;;;;;15.25;0.90;;;;;;;;;;5071113;28;20025;-39
2024/01/14 12:22:49;;;;;;;13.75;1.55;;;;;;;;;;5071280;28;20020;-39
2024/01/14 12:25:16;;;;;;;19.95;1.70;;;;;;;;;;5071313;28;20055;-40
2024/01/14 12:27:43;;;;;;;18.63;1.75;;;;;;;;;;5071039;28;20049;-39
2024/01/14 12:30:10;;;;;;;22.20;1.20;;;;;;;;;;5071072;28;20039;-39
2024/01/14 12:32:37;;;;;;;13.82;1.48;;;;;;;;;;5061464;28;20063;-39
2024/01/14 12:35:08;;;;;;;19.65;1.73;;;;;;;;;;5060898;28;20056;-39
2024/01/14 12:37:35;;;;;;;18.27;1.55;;;;;;;;;;5059197;28;20032;-39
2024/01/14 12:40:03;;;;;;;17.48;1.80;;;;;;;;;;5059507;28;20020;-39
2024/01/14 12:42:29;;;;;;;15.18;1.67;;;;;;;;;;5059725;28;20107;-39
2024/01/14 12:45:01;;;;;;;21.85;1.67;;;;;;;;;;5062380;28;20083;-39
2024/01/14 12:47:28;;;;;;;16.73;1.67;;;;;;;;;;5060561;28;20131;-39
2024/01/14 12:49:55;;;;;;;18.70;1.67;;;;;;;;;;5060475;28;20017;-38
2024/01/14 12:52:22;;;;;;;30.00;2.30;;;;;;;;;;5059580;28;20024;-39
2024/01/14 12:54:50;;;;;;;27.33;2.17;;;;;;;;;;5061234;28;20075;-39
2024/01/14 12:57:17;;;;;;;12.90;1.63;;;;;;;;;;5065648;28;20017;-39
2024/01/14 12:59:44;;;;;;;21.15;1.90;;;;;;;;;;5061101;28;20035;-39
2024/01/14 13:02:11;;;;;;;13.80;1.50;;;;;;;;;;5072445;28;20052;-39
2024/01/14 13:04:38;;;;;;;17.77;1.80;;;;;;;;;;5074003;28;20387;-39
2024/01/14 13:07:05;;;;;;;19.05;1.42;;;;;;;;;;5070133;28;20040;-39
2024/01/14 13:09:32;;;;;;;20.40;1.27;;;;;;;;;;5073784;28;20017;-40
2024/01/14 13:11:59;;;;;;;13.23;0.93;;;;;;;;;;5073680;28;20020;-39
2024/01/14 13:14:28;;;;;;;16.05;1.02;;;;;;;;;;5073592;28;20531;-39
2024/01/14 13:16:55;;;;;;;15.60;0.90;;;;;;;;;;5073604;28;20040;-39
2024/01/14 13:19:22;;;;;;;6.95;0.70;;;;;;;;;;5073448;28;20027;-39
2024/01/14 13:21:49;;;;;;;10.88;0.75;;;;;;;;;;5073367;28;20033;-38
2024/01/14 13:24:16;;;;;;;9.18;0.90;;;;;;;;;;5061198;28;20378;-39
2024/01/14 13:26:43;;;;;;;9.10;0.50;;;;;;;;;;5064109;28;20078;-39
2024/01/14 13:29:13;;;;;;;5.32;0.60;;;;;;;;;;5072905;28;20085;-39
2024/01/14 13:31:41;;;;;;;6.43;0.70;;;;;;;;;;5073586;28;20035;-39
2024/01/14 13:34:08;;;;;;;10.25;0.75;;;;;;;;;;5072570;28;20032;-38
2024/01/14 13:36:35;;;;;;;11.15;0.70;;;;;;;;;;5073549;28;20035;-41
2024/01/14 13:39:03;;;;;;;6.05;0.80;;;;;;;;;;5073214;28;20394;-41
2024/01/14 13:41:30;;;;;;;8.30;1.00;;;;;;;;;;5073480;28;20028;-39
2024/01/14 13:43:57;;;;;;;8.55;0.77;;;;;;;;;;5073152;28;20071;-40
2024/01/14 13:46:24;;;;;;;5.45;0.73;;;;;;;;;;5073276;28;20095;-38
2024/01/14 13:48:51;;;;;;;16.38;1.08;;;;;;;;;;5073025;28;20135;-39
2024/01/14 13:51:19;;;;;;;9.88;0.95;;;;;;;;;;5073181;28;20060;-39
2024/01/14 13:53:46;;;;;;;8.50;0.88;;;;;;;;;;5071296;28;20101;-42
2024/01/14 13:56:13;;;;;;;11.18;1.23;;;;;;;;;;5068078;28;20770;-41
2024/01/14 13:58:40;;;;;;;11.48;0.90;;;;;;;;;;5072456;28;20075;-40
2024/01/14 14:01:07;;;;;;;13.40;1.15;;;;;;;;;;5072993;28;20035;-39
2024/01/14 14:03:34;;;;;;;14.02;1.20;;;;;;;;;;5072654;28;20466;-39
2024/01/14 14:06:01;;;;;;;10.07;1.15;;;;;;;;;;5072510;28;20122;-40
2024/01/14 14:08:28;;;;;;;11.73;1.02;;;;;;;;;;5072533;28;20039;-40
2024/01/14 14:10:55;;;;;;;8.90;0.75;;;;;;;;;;5072206;28;20089;-40
2024/01/14 14:13:22;;;;;;;11.82;1.00;;;;;;;;;;5071681;28;20111;-39
2024/01/14 14:15:49;;;;;;;13.93;0.93;;;;;;;;;;5072417;28;20496;-40
2024/01/14 14:18:16;;;;;;;13.35;1.48;;;;;;;;;;5072809;28;20135;-39
2024/01/14 14:20:43;;;;;;;19.02;2.15;;;;;;;;;;5072544;28;20032;-39
2024/01/14 14:23:10;;;;;;;15.23;1.45;;;;;;;;;;5072289;28;20111;-40
2024/01/14 14:25:37;;;;;;;9.88;1.05;;;;;;;;;;5071993;28;20082;-39
2024/01/14 14:28:04;;;;;;;10.38;1.00;;;;;;;;;;5065687;28;20060;-42
2024/01/14 14:30:31;;;;;;;5.97;0.80;;;;;;;;;;5072266;28;20027;-38
2024/01/14 14:32:58;;;;;;;11.10;1.25;;;;;;;;;;5072513;28;20094;-38
2024/01/14 14:35:25;;;;;;;10.40;1.10;;;;;;;;;;5072150;28;20486;-39
2024/01/14 14:37:52;;;;;;;13.15;1.35;;;;;;;;;;5072062;28;20029;-38
2024/01/14 14:40:19;;;;;;;21.80;1.77;;;;;;;;;;5071947;28;20036;-39
2024/01/14 14:42:46;;;;;;;14.20;1.67;;;;;;;;;;5071455;28;20093;-39